createdAt,value
2018-02-21T00:00:50.838Z,0
2018-02-21T00:01:50.907Z,0
2018-02-21T00:02:50.836Z,0
2018-02-21T00:03:50.910Z,0
2018-02-21T00:04:50.841Z,0
2018-02-21T00:05:50.910Z,0
2018-02-21T00:06:50.851Z,0
2018-02-21T00:07:50.956Z,0
2018-02-21T00:08:50.916Z,0
2018-02-21T00:09:50.856Z,0
2018-02-21T00:10:50.845Z,0
2018-02-21T00:11:50.895Z,0
2018-02-21T00:12:50.943Z,0
2018-02-21T00:13:50.886Z,0
2018-02-21T00:14:50.905Z,0
2018-02-21T00:15:50.895Z,0
2018-02-21T00:16:50.956Z,0
2018-02-21T00:17:50.920Z,0
2018-02-21T00:18:50.851Z,0
2018-02-21T00:19:50.922Z,0
2018-02-21T00:20:50.849Z,0
2018-02-21T00:21:50.956Z,0
2018-02-21T00:22:50.854Z,0
2018-02-21T00:23:50.850Z,0
2018-02-21T00:24:50.922Z,0
2018-02-21T00:25:50.850Z,0
2018-02-21T00:26:50.923Z,0
2018-02-21T00:27:50.862Z,0
2018-02-21T00:28:50.827Z,0
2018-02-21T00:29:50.933Z,0
2018-02-21T00:30:50.936Z,0
2018-02-21T00:31:50.877Z,0
2018-02-21T00:32:50.867Z,0
2018-02-21T00:33:50.957Z,0
2018-02-21T00:34:50.940Z,0
2018-02-21T00:35:50.903Z,0
2018-02-21T00:36:50.868Z,0
2018-02-21T00:37:50.890Z,0
2018-02-21T00:38:50.868Z,0
2018-02-21T00:39:50.943Z,0
2018-02-21T00:40:50.842Z,0
2018-02-21T00:41:50.871Z,0
2018-02-21T00:42:50.944Z,0
2018-02-21T00:43:50.873Z,0
2018-02-21T00:44:50.874Z,0
2018-02-21T00:45:50.932Z,0
2018-02-21T00:46:50.946Z,0
2018-02-21T00:47:50.959Z,0
2018-02-21T00:48:50.846Z,0
2018-02-21T00:49:50.871Z,0
2018-02-21T00:50:50.868Z,0
2018-02-21T00:51:50.880Z,0
2018-02-21T00:52:50.957Z,0
2018-02-21T00:53:50.968Z,0
2018-02-21T00:54:50.971Z,0
2018-02-21T00:55:50.883Z,0
2018-02-21T00:56:50.950Z,0
2018-02-21T00:57:50.916Z,0
2018-02-21T00:58:50.909Z,0
2018-02-21T00:59:50.922Z,0
2018-02-21T01:00:50.989Z,0
2018-02-21T01:01:50.935Z,0
2018-02-21T01:02:50.870Z,0
2018-02-21T01:03:50.972Z,0
2018-02-21T01:04:50.985Z,0
2018-02-21T01:05:50.991Z,0
2018-02-21T01:06:50.926Z,0
2018-02-21T01:07:50.979Z,0
2018-02-21T01:08:50.952Z,0
2018-02-21T01:09:50.933Z,0
2018-02-21T01:10:50.987Z,0
2018-02-21T01:11:50.882Z,0
2018-02-21T01:12:50.989Z,0
2018-02-21T01:13:50.964Z,0
2018-02-21T01:14:50.986Z,0
2018-02-21T01:15:50.878Z,0
2018-02-21T01:16:50.966Z,0
2018-02-21T01:17:50.981Z,0
2018-02-21T01:18:51.015Z,0
2018-02-21T01:19:50.993Z,0
2018-02-21T01:20:50.996Z,0
2018-02-21T01:21:50.879Z,0
2018-02-21T01:22:50.940Z,0
2018-02-21T01:23:50.938Z,0
2018-02-21T01:24:50.943Z,0
2018-02-21T01:25:50.958Z,0
2018-02-21T01:26:50.938Z,0
2018-02-21T01:27:50.946Z,0
2018-02-21T01:28:50.892Z,0
2018-02-21T01:29:50.905Z,0
2018-02-21T01:30:50.937Z,0
2018-02-21T01:31:50.995Z,0
2018-02-21T01:32:50.892Z,0
2018-02-21T01:33:51.003Z,0
2018-02-21T01:34:50.967Z,0
2018-02-21T01:35:50.932Z,0
2018-02-21T01:36:50.982Z,0
2018-02-21T01:37:50.948Z,0
2018-02-21T01:38:50.947Z,0
2018-02-21T01:39:50.954Z,0
2018-02-21T01:40:50.973Z,0
2018-02-21T01:41:50.932Z,0
2018-02-21T01:42:50.941Z,0
2018-02-21T01:43:51.003Z,0
2018-02-21T01:44:51.034Z,0
2018-02-21T01:45:50.948Z,0
2018-02-21T01:46:50.974Z,0
2018-02-21T01:47:50.966Z,0
2018-02-21T01:48:50.874Z,0
2018-02-21T01:49:50.848Z,0
2018-02-21T01:50:50.851Z,0
2018-02-21T01:51:50.877Z,0
2018-02-21T01:52:50.872Z,0
2018-02-21T01:53:50.876Z,0
2018-02-21T01:54:50.878Z,0
2018-02-21T01:55:50.961Z,0
2018-02-21T01:56:50.874Z,0
2018-02-21T01:57:50.949Z,0
2018-02-21T01:58:50.982Z,0
2018-02-21T01:59:50.923Z,0
2018-02-21T02:00:51.011Z,0
2018-02-21T02:01:50.986Z,0
2018-02-21T02:02:50.948Z,0
2018-02-21T02:03:51.028Z,0
2018-02-21T02:04:51.020Z,0
2018-02-21T02:05:50.957Z,0
2018-02-21T02:06:50.993Z,0
2018-02-21T02:07:50.918Z,0
2018-02-21T02:08:50.924Z,0
2018-02-21T02:09:50.939Z,0
2018-02-21T02:10:50.925Z,0
2018-02-21T02:11:51.000Z,0
2018-02-21T02:12:50.941Z,0
2018-02-21T02:13:50.925Z,0
2018-02-21T02:14:51.002Z,0
2018-02-21T02:15:50.926Z,0
2018-02-21T02:16:51.008Z,0
2018-02-21T02:17:50.928Z,0
2018-02-21T02:18:51.004Z,0
2018-02-21T02:19:50.920Z,0
2018-02-21T02:20:50.918Z,0
2018-02-21T02:21:50.922Z,0
2018-02-21T02:22:51.060Z,0
2018-02-21T02:23:50.919Z,0
2018-02-21T02:24:51.005Z,0
2018-02-21T02:25:50.924Z,0
2018-02-21T02:26:51.026Z,0
2018-02-21T02:27:51.035Z,0
2018-02-21T02:28:50.938Z,0
2018-02-21T02:29:50.876Z,0
2018-02-21T02:30:50.961Z,0
2018-02-21T02:31:50.872Z,0
2018-02-21T02:32:50.904Z,0
2018-02-21T02:33:50.986Z,0
2018-02-21T02:34:50.965Z,0
2018-02-21T02:35:50.874Z,0
2018-02-21T02:36:50.930Z,0
2018-02-21T02:37:50.946Z,0
2018-02-21T02:38:51.014Z,0
2018-02-21T02:39:50.938Z,0
2018-02-21T02:40:51.003Z,0
2018-02-21T02:41:50.931Z,0
2018-02-21T02:42:51.006Z,0
2018-02-21T02:43:50.934Z,0
2018-02-21T02:44:51.004Z,0
2018-02-21T02:45:50.934Z,0
2018-02-21T02:46:50.940Z,0
2018-02-21T02:47:51.006Z,0
2018-02-21T02:48:51.034Z,0
2018-02-21T02:49:50.948Z,0
2018-02-21T02:50:50.914Z,0
2018-02-21T02:51:51.036Z,0
2018-02-21T02:52:51.028Z,0
2018-02-21T02:53:50.950Z,0
2018-02-21T02:54:50.972Z,0
2018-02-21T02:55:50.952Z,0
2018-02-21T02:56:51.029Z,0
2018-02-21T02:57:51.040Z,0
2018-02-21T02:58:51.022Z,0
2018-02-21T02:59:50.945Z,0
2018-02-21T03:00:51.025Z,0
2018-02-21T03:01:51.019Z,0
2018-02-21T03:02:50.964Z,0
2018-02-21T03:03:50.946Z,0
2018-02-21T03:04:51.030Z,0
2018-02-21T03:05:51.055Z,0
2018-02-21T03:06:51.084Z,0
2018-02-21T03:07:51.058Z,0
2018-02-21T03:08:50.968Z,0
2018-02-21T03:09:50.991Z,0
2018-02-21T03:10:51.024Z,0
2018-02-21T03:11:51.061Z,0
2018-02-21T03:12:51.026Z,0
2018-02-21T03:13:50.998Z,0
2018-02-21T03:14:51.005Z,0
2018-02-21T03:15:50.970Z,0
2018-02-21T03:16:51.006Z,0
2018-02-21T03:17:50.956Z,0
2018-02-21T03:18:51.025Z,0
2018-02-21T03:19:50.954Z,0
2018-02-21T03:20:51.027Z,0
2018-02-21T03:21:50.955Z,0
2018-02-21T03:22:51.028Z,0
2018-02-21T03:23:50.956Z,0
2018-02-21T03:24:51.035Z,0
2018-02-21T03:25:50.964Z,0
2018-02-21T03:26:51.036Z,0
2018-02-21T03:27:50.960Z,0
2018-02-21T03:28:51.049Z,0
2018-02-21T03:29:51.045Z,0
2018-02-21T03:30:51.048Z,0
2018-02-21T03:31:51.002Z,0
2018-02-21T03:32:50.971Z,0
2018-02-21T03:33:51.048Z,0
2018-02-21T03:34:51.038Z,0
2018-02-21T03:35:50.975Z,0
2018-02-21T03:36:51.054Z,0
2018-02-21T03:37:51.048Z,0
2018-02-21T03:38:50.978Z,0
2018-02-21T03:39:51.042Z,0
2018-02-21T03:40:51.048Z,0
2018-02-21T03:41:50.948Z,0
2018-02-21T03:42:51.109Z,0
2018-02-21T03:43:51.014Z,0
2018-02-21T03:44:51.050Z,0
2018-02-21T03:45:51.074Z,0
2018-02-21T03:46:51.028Z,0
2018-02-21T03:47:51.081Z,0
2018-02-21T03:48:51.060Z,0
2018-02-21T03:49:51.059Z,0
2018-02-21T03:50:50.984Z,0
2018-02-21T03:51:51.059Z,0
2018-02-21T03:52:51.062Z,0
2018-02-21T03:53:50.986Z,0
2018-02-21T03:54:50.982Z,0
2018-02-21T03:55:50.990Z,0
2018-02-21T03:56:51.061Z,0
2018-02-21T03:57:50.993Z,0
2018-02-21T03:58:50.943Z,0
2018-02-21T03:59:50.840Z,0
2018-02-21T04:00:50.945Z,0
2018-02-21T04:01:50.851Z,0
2018-02-21T04:02:50.998Z,0
2018-02-21T04:03:50.845Z,0
2018-02-21T04:04:50.851Z,0
2018-02-21T04:05:50.945Z,0
2018-02-21T04:06:50.916Z,0
2018-02-21T04:07:51.011Z,0
2018-02-21T04:08:51.071Z,0
2018-02-21T04:09:51.119Z,0
2018-02-21T04:10:51.061Z,0
2018-02-21T04:11:51.096Z,0
2018-02-21T04:12:51.097Z,0
2018-02-21T04:13:51.039Z,0
2018-02-21T04:14:50.984Z,0
2018-02-21T04:15:51.099Z,0
2018-02-21T04:16:51.072Z,0
2018-02-21T04:17:51.032Z,0
2018-02-21T04:18:51.062Z,0
2018-02-21T04:19:50.989Z,0
2018-02-21T04:20:51.064Z,0
2018-02-21T04:21:50.989Z,0
2018-02-21T04:22:51.066Z,0
2018-02-21T04:23:51.019Z,0
2018-02-21T04:24:51.065Z,0
2018-02-21T04:25:50.995Z,0
2018-02-21T04:26:51.067Z,0
2018-02-21T04:27:50.995Z,0
2018-02-21T04:28:51.039Z,0
2018-02-21T04:29:51.167Z,0
2018-02-21T04:30:50.993Z,0
2018-02-21T04:31:51.103Z,0
2018-02-21T04:32:50.990Z,0
2018-02-21T04:33:51.112Z,0
2018-02-21T04:34:51.112Z,0
2018-02-21T04:35:51.113Z,0
2018-02-21T04:36:51.006Z,0
2018-02-21T04:37:51.118Z,0
2018-02-21T04:38:51.085Z,0
2018-02-21T04:39:50.987Z,0
2018-02-21T04:40:51.109Z,0
2018-02-21T04:41:51.007Z,0
2018-02-21T04:42:51.116Z,0
2018-02-21T04:43:51.021Z,0
2018-02-21T04:44:51.108Z,0
2018-02-21T04:45:51.106Z,0
2018-02-21T04:46:51.006Z,0
2018-02-21T04:47:51.087Z,0
2018-02-21T04:48:51.086Z,0
2018-02-21T04:49:51.023Z,0
2018-02-21T04:50:51.110Z,0
2018-02-21T04:51:51.098Z,0
2018-02-21T04:52:51.116Z,0
2018-02-21T04:53:51.087Z,0
2018-02-21T04:54:51.152Z,0
2018-02-21T04:55:51.119Z,0
2018-02-21T04:56:51.007Z,0
2018-02-21T04:57:51.030Z,0
2018-02-21T04:58:51.081Z,0
2018-02-21T04:59:51.025Z,0
2018-02-21T05:00:51.026Z,0
2018-02-21T05:01:51.028Z,0
2018-02-21T05:02:51.089Z,0
2018-02-21T05:03:51.020Z,0
2018-02-21T05:04:51.025Z,0
2018-02-21T05:05:51.090Z,0
2018-02-21T05:06:51.023Z,0
2018-02-21T05:07:51.096Z,0
2018-02-21T05:08:51.030Z,0
2018-02-21T05:09:51.073Z,0
2018-02-21T05:10:51.032Z,0
2018-02-21T05:11:51.109Z,0
2018-02-21T05:12:51.034Z,0
2018-02-21T05:13:51.118Z,0
2018-02-21T05:14:51.057Z,0
2018-02-21T05:15:51.050Z,0
2018-02-21T05:16:51.110Z,0
2018-02-21T05:17:51.111Z,0
2018-02-21T05:18:51.137Z,0
2018-02-21T05:19:51.070Z,0
2018-02-21T05:20:51.114Z,0
2018-02-21T05:21:51.079Z,0
2018-02-21T05:22:51.106Z,0
2018-02-21T05:23:51.048Z,0
2018-02-21T05:24:51.087Z,0
2018-02-21T05:25:51.172Z,0
2018-02-21T05:26:51.143Z,0
2018-02-21T05:27:51.051Z,0
2018-02-21T05:28:51.108Z,0
2018-02-21T05:29:51.149Z,0
2018-02-21T05:30:51.028Z,0
2018-02-21T05:31:51.082Z,0
2018-02-21T05:32:51.014Z,0
2018-02-21T05:33:51.113Z,0
2018-02-21T05:34:51.035Z,0
2018-02-21T05:35:51.111Z,0
2018-02-21T05:36:51.032Z,0
2018-02-21T05:37:51.121Z,0
2018-02-21T05:38:51.144Z,0
2018-02-21T05:39:51.057Z,0
2018-02-21T05:40:51.174Z,0
2018-02-21T05:41:51.042Z,0
2018-02-21T05:42:51.156Z,0
2018-02-21T05:43:51.039Z,0
2018-02-21T05:44:51.160Z,0
2018-02-21T05:45:51.147Z,0
2018-02-21T05:46:51.103Z,0
2018-02-21T05:47:51.146Z,0
2018-02-21T05:48:51.059Z,0
2018-02-21T05:49:51.124Z,0
2018-02-21T05:50:51.099Z,0
2018-02-21T05:51:51.127Z,0
2018-02-21T05:52:51.024Z,0
2018-02-21T05:53:51.103Z,0
2018-02-21T05:54:51.101Z,0
2018-02-21T05:55:51.132Z,0
2018-02-21T05:56:51.063Z,0
2018-02-21T05:57:51.126Z,0
2018-02-21T05:58:51.108Z,0
2018-02-21T05:59:51.209Z,0
2018-02-21T06:00:51.102Z,0
2018-02-21T06:01:51.149Z,0
2018-02-21T06:02:51.140Z,0
2018-02-21T06:03:51.139Z,0
2018-02-21T06:04:51.170Z,0
2018-02-21T06:05:51.158Z,0
2018-02-21T06:06:51.055Z,0
2018-02-21T06:07:51.152Z,0
2018-02-21T06:08:51.127Z,5
2018-02-21T06:09:51.129Z,5
2018-02-21T06:10:51.135Z,5
2018-02-21T06:11:51.062Z,5
2018-02-21T06:12:51.132Z,5
2018-02-21T06:13:51.070Z,11
2018-02-21T06:14:51.135Z,11
2018-02-21T06:15:51.065Z,11
2018-02-21T06:16:51.012Z,16
2018-02-21T06:17:51.065Z,16
2018-02-21T06:18:51.058Z,16
2018-02-21T06:19:51.060Z,22
2018-02-21T06:20:51.115Z,22
2018-02-21T06:21:51.120Z,22
2018-02-21T06:22:51.153Z,28
2018-02-21T06:23:51.123Z,28
2018-02-21T06:24:51.046Z,33
2018-02-21T06:25:51.121Z,33
2018-02-21T06:26:51.128Z,33
2018-02-21T06:27:51.106Z,39
2018-02-21T06:28:51.085Z,45
2018-02-21T06:29:51.187Z,45
2018-02-21T06:30:51.148Z,50
2018-02-21T06:31:51.153Z,56
2018-02-21T06:32:51.187Z,56
2018-02-21T06:33:51.130Z,61
2018-02-21T06:34:51.147Z,67
2018-02-21T06:35:51.110Z,73
2018-02-21T06:36:51.117Z,78
2018-02-21T06:37:51.125Z,78
2018-02-21T06:38:51.055Z,84
2018-02-21T06:39:51.158Z,90
2018-02-21T06:40:51.214Z,95
2018-02-21T06:41:51.093Z,101
2018-02-21T06:42:51.092Z,101
2018-02-21T06:43:51.107Z,106
2018-02-21T06:44:51.076Z,112
2018-02-21T06:45:51.126Z,118
2018-02-21T06:46:51.188Z,123
2018-02-21T06:47:51.190Z,129
2018-02-21T06:48:51.129Z,135
2018-02-21T06:49:51.154Z,140
2018-02-21T06:50:51.076Z,146
2018-02-21T06:51:51.157Z,151
2018-02-21T06:52:51.081Z,163
2018-02-21T06:53:51.186Z,163
2018-02-21T06:54:51.203Z,168
2018-02-21T06:55:51.062Z,168
2018-02-21T06:56:51.098Z,168
2018-02-21T06:57:51.187Z,174
2018-02-21T06:58:51.083Z,180
2018-02-21T06:59:51.109Z,191
2018-02-21T07:00:51.053Z,202
2018-02-21T07:01:51.119Z,208
2018-02-21T07:02:51.153Z,213
2018-02-21T07:03:51.161Z,230
2018-02-21T07:04:51.162Z,230
2018-02-21T07:05:51.111Z,230
2018-02-21T07:06:51.058Z,236
2018-02-21T07:07:51.114Z,230
2018-02-21T07:08:51.176Z,230
2018-02-21T07:09:51.104Z,236
2018-02-21T07:10:51.174Z,247
2018-02-21T07:11:51.174Z,253
2018-02-21T07:12:51.106Z,253
2018-02-21T07:13:51.177Z,258
2018-02-21T07:14:51.194Z,270
2018-02-21T07:15:51.128Z,281
2018-02-21T07:16:51.105Z,292
2018-02-21T07:17:51.178Z,298
2018-02-21T07:18:51.107Z,303
2018-02-21T07:19:51.111Z,315
2018-02-21T07:20:51.180Z,326
2018-02-21T07:21:51.110Z,343
2018-02-21T07:22:51.111Z,371
2018-02-21T07:23:51.107Z,405
2018-02-21T07:24:51.112Z,427
2018-02-21T07:25:51.186Z,410
2018-02-21T07:26:51.184Z,371
2018-02-21T07:27:51.110Z,348
2018-02-21T07:28:51.178Z,360
2018-02-21T07:29:51.183Z,388
2018-02-21T07:30:51.122Z,405
2018-02-21T07:31:51.087Z,427
2018-02-21T07:32:51.216Z,438
2018-02-21T07:33:51.108Z,461
2018-02-21T07:34:51.180Z,466
2018-02-21T07:35:51.186Z,472
2018-02-21T07:36:51.088Z,489
2018-02-21T07:37:51.185Z,500
2018-02-21T07:38:51.093Z,517
2018-02-21T07:39:51.218Z,523
2018-02-21T07:40:51.157Z,517
2018-02-21T07:41:51.188Z,511
2018-02-21T07:42:51.190Z,528
2018-02-21T07:43:51.226Z,551
2018-02-21T07:44:51.225Z,556
2018-02-21T07:45:51.130Z,528
2018-02-21T07:46:51.233Z,506
2018-02-21T07:47:51.177Z,495
2018-02-21T07:48:51.201Z,517
2018-02-21T07:49:51.195Z,556
2018-02-21T07:50:51.193Z,596
2018-02-21T07:51:51.135Z,585
2018-02-21T07:52:51.166Z,573
2018-02-21T07:53:51.199Z,551
2018-02-21T07:54:51.197Z,540
2018-02-21T07:55:51.164Z,528
2018-02-21T07:56:51.169Z,528
2018-02-21T07:57:51.236Z,556
2018-02-21T07:58:51.172Z,573
2018-02-21T07:59:51.071Z,601
2018-02-21T08:00:51.176Z,663
2018-02-21T08:01:51.192Z,731
2018-02-21T08:02:51.184Z,759
2018-02-21T08:03:51.104Z,753
2018-02-21T08:04:51.065Z,759
2018-02-21T08:05:51.098Z,753
2018-02-21T08:06:51.138Z,776
2018-02-21T08:07:51.147Z,770
2018-02-21T08:08:51.139Z,787
2018-02-21T08:09:51.203Z,849
2018-02-21T08:10:51.111Z,888
2018-02-21T08:11:51.207Z,888
2018-02-21T08:12:51.241Z,900
2018-02-21T08:13:51.224Z,933
2018-02-21T08:14:51.182Z,978
2018-02-21T08:15:51.208Z,1018
2018-02-21T08:16:51.179Z,1051
2018-02-21T08:17:51.112Z,1074
2018-02-21T08:18:51.210Z,1091
2018-02-21T08:19:51.144Z,1108
2018-02-21T08:20:51.217Z,1125
2018-02-21T08:21:51.183Z,1130
2018-02-21T08:22:51.215Z,1147
2018-02-21T08:23:51.145Z,1164
2018-02-21T08:24:51.176Z,1186
2018-02-21T08:25:51.217Z,1203
2018-02-21T08:26:51.219Z,1215
2018-02-21T08:27:51.220Z,1243
2018-02-21T08:28:51.107Z,1254
2018-02-21T08:29:51.183Z,1271
2018-02-21T08:30:51.137Z,1271
2018-02-21T08:31:51.089Z,1282
2018-02-21T08:32:51.215Z,1321
2018-02-21T08:33:51.165Z,1321
2018-02-21T08:34:51.208Z,1333
2018-02-21T08:35:51.145Z,1355
2018-02-21T08:36:51.111Z,1344
2018-02-21T08:37:51.181Z,1383
2018-02-21T08:38:51.130Z,1389
2018-02-21T08:39:51.213Z,1411
2018-02-21T08:40:51.224Z,1423
2018-02-21T08:41:51.129Z,1440
2018-02-21T08:42:51.128Z,1518
2018-02-21T08:43:51.118Z,1563
2018-02-21T08:44:51.220Z,1496
2018-02-21T08:45:51.219Z,1462
2018-02-21T08:46:51.155Z,1507
2018-02-21T08:47:51.220Z,1558
2018-02-21T08:48:51.134Z,1653
2018-02-21T08:49:51.190Z,1749
2018-02-21T08:50:51.131Z,1890
2018-02-21T08:51:51.203Z,1929
2018-02-21T08:52:51.132Z,1951
2018-02-21T08:53:51.269Z,1980
2018-02-21T08:54:51.140Z,2030
2018-02-21T08:55:51.233Z,1996
2018-02-21T08:56:51.258Z,1968
2018-02-21T08:57:51.138Z,1918
2018-02-21T08:58:51.279Z,1659
2018-02-21T08:59:51.267Z,1496
2018-02-21T09:00:51.269Z,1434
2018-02-21T09:01:51.236Z,1209
2018-02-21T09:02:51.136Z,1023
2018-02-21T09:03:51.239Z,995
2018-02-21T09:04:51.239Z,967
2018-02-21T09:05:51.260Z,984
2018-02-21T09:06:51.220Z,1164
2018-02-21T09:07:51.282Z,1524
2018-02-21T09:08:51.208Z,1417
2018-02-21T09:09:51.351Z,1344
2018-02-21T09:10:51.242Z,1248
2018-02-21T09:11:51.158Z,1434
2018-02-21T09:12:51.285Z,1839
2018-02-21T09:13:51.268Z,1603
2018-02-21T09:14:51.173Z,1254
2018-02-21T09:15:51.248Z,1333
2018-02-21T09:16:51.275Z,1620
2018-02-21T09:17:51.249Z,1535
2018-02-21T09:18:51.288Z,1451
2018-02-21T09:19:51.249Z,1372
2018-02-21T09:20:51.258Z,1563
2018-02-21T09:21:51.213Z,1316
2018-02-21T09:22:51.173Z,1653
2018-02-21T09:23:51.277Z,1631
2018-02-21T09:24:51.253Z,1575
2018-02-21T09:25:51.172Z,1541
2018-02-21T09:26:51.214Z,1485
2018-02-21T09:27:51.286Z,1653
2018-02-21T09:28:51.258Z,1648
2018-02-21T09:30:51.261Z,1946
2018-02-21T09:31:51.186Z,2064
2018-02-21T09:32:51.267Z,2154
2018-02-21T09:33:51.216Z,2216
2018-02-21T09:34:51.303Z,2216
2018-02-21T09:35:51.263Z,2238
2018-02-21T09:36:51.277Z,2238
2018-02-21T09:37:51.193Z,2250
2018-02-21T09:38:51.261Z,2250
2018-02-21T09:39:51.195Z,2250
2018-02-21T09:40:51.265Z,2233
2018-02-21T09:41:51.262Z,2255
2018-02-21T09:42:51.268Z,2272
2018-02-21T09:43:51.193Z,2289
2018-02-21T09:44:51.199Z,2300
2018-02-21T09:45:51.262Z,2323
2018-02-21T09:46:51.202Z,2323
2018-02-21T09:47:51.207Z,2340
2018-02-21T09:48:51.268Z,2368
2018-02-21T09:49:51.307Z,2368
2018-02-21T09:50:51.273Z,2356
2018-02-21T09:51:51.310Z,2345
2018-02-21T09:52:51.265Z,2334
2018-02-21T09:53:51.175Z,2356
2018-02-21T09:54:51.265Z,2356
2018-02-21T09:55:51.192Z,2373
2018-02-21T09:56:51.293Z,2373
2018-02-21T09:57:51.299Z,2351
2018-02-21T09:58:51.237Z,2345
2018-02-21T09:59:51.305Z,2345
2018-02-21T10:00:51.294Z,2334
2018-02-21T10:01:51.303Z,2351
2018-02-21T10:02:51.240Z,2396
2018-02-21T10:03:51.283Z,2463
2018-02-21T10:04:51.196Z,2503
2018-02-21T10:05:51.275Z,2514
2018-02-21T10:06:51.277Z,2508
2018-02-21T10:07:51.183Z,2520
2018-02-21T10:08:51.212Z,2491
2018-02-21T10:09:51.271Z,2480
2018-02-21T10:10:51.265Z,2441
2018-02-21T10:11:51.186Z,2463
2018-02-21T10:12:51.223Z,2463
2018-02-21T10:13:51.272Z,2480
2018-02-21T10:14:51.273Z,2486
2018-02-21T10:15:51.184Z,2491
2018-02-21T10:16:51.238Z,2520
2018-02-21T10:17:51.269Z,2525
2018-02-21T10:18:51.170Z,2525
2018-02-21T10:19:51.294Z,2559
2018-02-21T10:20:51.285Z,2576
2018-02-21T10:21:51.215Z,2581
2018-02-21T10:22:51.223Z,2587
2018-02-21T10:23:51.221Z,2598
2018-02-21T10:24:51.288Z,2587
2018-02-21T10:25:51.225Z,2576
2018-02-21T10:26:51.218Z,2581
2018-02-21T10:27:51.295Z,2593
2018-02-21T10:28:51.221Z,2598
2018-02-21T10:29:51.291Z,2610
2018-02-21T10:30:51.223Z,2621
2018-02-21T10:31:51.293Z,2638
2018-02-21T10:32:51.228Z,2593
2018-02-21T10:33:51.226Z,2565
2018-02-21T10:34:51.302Z,2553
2018-02-21T10:35:51.230Z,2548
2018-02-21T10:36:51.303Z,2536
2018-02-21T10:37:51.229Z,2497
2018-02-21T10:38:51.293Z,2525
2018-02-21T10:39:51.227Z,2536
2018-02-21T10:40:51.298Z,2565
2018-02-21T10:41:51.233Z,2542
2018-02-21T10:42:51.184Z,2514
2018-02-21T10:43:51.230Z,2542
2018-02-21T10:44:51.305Z,2553
2018-02-21T10:45:51.301Z,2570
2018-02-21T10:46:51.243Z,2576
2018-02-21T10:47:51.245Z,2559
2018-02-21T10:48:51.304Z,2570
2018-02-21T10:49:51.203Z,2610
2018-02-21T10:50:51.276Z,2632
2018-02-21T10:51:51.274Z,2643
2018-02-21T10:52:51.359Z,2655
2018-02-21T10:53:51.346Z,2716
2018-02-21T10:54:51.337Z,2643
2018-02-21T10:55:51.278Z,2677
2018-02-21T10:56:51.305Z,2677
2018-02-21T10:57:51.282Z,2626
2018-02-21T10:58:51.248Z,2655
2018-02-21T10:59:51.171Z,2722
2018-02-21T11:00:51.213Z,2790
2018-02-21T11:01:51.239Z,2835
2018-02-21T11:02:51.182Z,2913
2018-02-21T11:03:51.251Z,3060
2018-02-21T11:04:51.288Z,3009
2018-02-21T11:05:51.182Z,2784
2018-02-21T11:06:51.205Z,2514
2018-02-21T11:07:51.292Z,2160
2018-02-21T11:08:51.204Z,2047
2018-02-21T11:09:51.272Z,1963
2018-02-21T11:10:51.312Z,1968
2018-02-21T11:11:51.336Z,1974
2018-02-21T11:12:51.336Z,1845
2018-02-21T11:13:51.314Z,1743
2018-02-21T11:14:51.327Z,1743
2018-02-21T11:15:51.317Z,1715
2018-02-21T11:16:51.242Z,1788
2018-02-21T11:17:51.240Z,1743
2018-02-21T11:18:51.318Z,1732
2018-02-21T11:19:51.252Z,1710
2018-02-21T11:20:51.418Z,1693
2018-02-21T11:21:51.325Z,1726
2018-02-21T11:22:51.254Z,1760
2018-02-21T11:23:51.259Z,1755
2018-02-21T11:24:51.270Z,1726
2018-02-21T11:25:51.324Z,1642
2018-02-21T11:26:51.268Z,1563
2018-02-21T11:27:51.326Z,1535
2018-02-21T11:28:51.377Z,1513
2018-02-21T11:29:51.283Z,1485
2018-02-21T11:30:51.310Z,1434
2018-02-21T11:31:51.261Z,1378
2018-02-21T11:32:51.306Z,1372
2018-02-21T11:33:51.228Z,1355
2018-02-21T11:34:51.310Z,1395
2018-02-21T11:35:51.307Z,1473
2018-02-21T11:36:51.266Z,1586
2018-02-21T11:37:51.220Z,1676
2018-02-21T11:38:51.225Z,1591
2018-02-21T11:39:51.300Z,1642
2018-02-21T11:40:51.311Z,1794
2018-02-21T11:41:51.331Z,1980
2018-02-21T11:42:51.352Z,2008
2018-02-21T11:43:51.317Z,1884
2018-02-21T11:44:51.366Z,2103
2018-02-21T11:45:51.343Z,2311
2018-02-21T11:46:51.260Z,2418
2018-02-21T11:47:51.299Z,2818
2018-02-21T11:48:51.274Z,2840
2018-02-21T11:49:51.268Z,2795
2018-02-21T11:50:51.375Z,2761
2018-02-21T11:51:51.276Z,2716
2018-02-21T11:52:51.339Z,2677
2018-02-21T11:53:51.276Z,2581
2018-02-21T11:54:51.273Z,2531
2018-02-21T11:55:51.365Z,2520
2018-02-21T11:56:51.342Z,2491
2018-02-21T11:57:51.342Z,2531
2018-02-21T11:58:51.277Z,2587
2018-02-21T11:59:51.371Z,2632
2018-02-21T12:00:51.379Z,2660
2018-02-21T12:01:51.380Z,2688
2018-02-21T12:02:51.265Z,2626
2018-02-21T12:03:51.370Z,2610
2018-02-21T12:04:51.370Z,2570
2018-02-21T12:05:51.376Z,2548
2018-02-21T12:06:51.343Z,2531
2018-02-21T12:07:51.315Z,2503
2018-02-21T12:08:51.317Z,2525
2018-02-21T12:09:51.359Z,2531
2018-02-21T12:10:51.389Z,2525
2018-02-21T12:11:51.386Z,2497
2018-02-21T12:12:51.352Z,2508
2018-02-21T12:13:51.316Z,2576
2018-02-21T12:14:51.395Z,2587
2018-02-21T12:15:51.373Z,2598
2018-02-21T12:16:51.274Z,2520
2018-02-21T12:17:51.297Z,2446
2018-02-21T12:18:51.254Z,2475
2018-02-21T12:19:51.333Z,2581
2018-02-21T12:20:51.281Z,2621
2018-02-21T12:21:51.374Z,2604
2018-02-21T12:22:51.392Z,2638
2018-02-21T12:23:51.395Z,2593
2018-02-21T12:24:51.436Z,2565
2018-02-21T12:25:51.361Z,2570
2018-02-21T12:26:51.389Z,2565
2018-02-21T12:27:51.387Z,2581
2018-02-21T12:28:51.402Z,2553
2018-02-21T12:29:51.338Z,2536
2018-02-21T12:30:51.384Z,2508
2018-02-21T12:31:51.342Z,2508
2018-02-21T12:32:51.383Z,2486
2018-02-21T12:33:51.269Z,2441
2018-02-21T12:34:51.373Z,2407
2018-02-21T12:35:51.399Z,2390
2018-02-21T12:36:51.347Z,2401
2018-02-21T12:37:51.330Z,2452
2018-02-21T12:38:51.273Z,2289
2018-02-21T12:39:51.387Z,2171
2018-02-21T12:40:51.276Z,1940
2018-02-21T12:41:51.298Z,2126
2018-02-21T12:42:51.343Z,2165
2018-02-21T12:43:51.351Z,2278
2018-02-21T12:44:51.336Z,2351
2018-02-21T12:45:51.369Z,2407
2018-02-21T12:46:51.416Z,2424
2018-02-21T12:47:51.375Z,2407
2018-02-21T12:48:51.312Z,2356
2018-02-21T12:49:51.374Z,2390
2018-02-21T12:50:51.416Z,2385
2018-02-21T12:51:51.374Z,2334
2018-02-21T12:52:51.313Z,2283
2018-02-21T12:53:51.309Z,2317
2018-02-21T12:54:51.358Z,2373
2018-02-21T12:55:51.405Z,2345
2018-02-21T12:56:51.295Z,2261
2018-02-21T12:57:51.408Z,2221
2018-02-21T12:58:51.417Z,2233
2018-02-21T12:59:51.381Z,2126
2018-02-21T13:00:51.306Z,2244
2018-02-21T13:01:51.407Z,2115
2018-02-21T13:02:51.403Z,1856
2018-02-21T13:03:51.419Z,1856
2018-02-21T13:04:51.385Z,1951
2018-02-21T13:05:51.336Z,1816
2018-02-21T13:06:51.388Z,1968
2018-02-21T13:07:51.347Z,1912
2018-02-21T13:08:51.414Z,1912
2018-02-21T13:09:51.386Z,1980
2018-02-21T13:10:51.331Z,2081
2018-02-21T13:11:51.409Z,2103
2018-02-21T13:12:51.391Z,2205
2018-02-21T13:13:51.396Z,2221
2018-02-21T13:14:51.320Z,2216
2018-02-21T13:15:51.392Z,2199
2018-02-21T13:16:51.402Z,2103
2018-02-21T13:17:51.394Z,2137
2018-02-21T13:18:51.323Z,2137
2018-02-21T13:19:51.367Z,2086
2018-02-21T13:20:51.367Z,2126
2018-02-21T13:21:51.265Z,2120
2018-02-21T13:22:51.375Z,2115
2018-02-21T13:23:51.417Z,1912
2018-02-21T13:24:51.352Z,1850
2018-02-21T13:25:51.398Z,1974
2018-02-21T13:26:51.327Z,1788
2018-02-21T13:27:51.262Z,1743
2018-02-21T13:28:51.323Z,1710
2018-02-21T13:29:51.397Z,1603
2018-02-21T13:30:51.426Z,1687
2018-02-21T13:31:51.397Z,1963
2018-02-21T13:32:51.392Z,2081
2018-02-21T13:33:51.322Z,2126
2018-02-21T13:34:51.382Z,2120
2018-02-21T13:35:51.332Z,2081
2018-02-21T13:36:51.443Z,1912
2018-02-21T13:37:51.371Z,1794
2018-02-21T13:38:51.401Z,1816
2018-02-21T13:39:51.395Z,1929
2018-02-21T13:40:51.309Z,1884
2018-02-21T13:41:51.329Z,1710
2018-02-21T13:42:51.310Z,1535
2018-02-21T13:43:51.314Z,1327
2018-02-21T13:44:51.400Z,1164
2018-02-21T13:45:51.365Z,1158
2018-02-21T13:46:51.313Z,1141
2018-02-21T13:47:51.340Z,1136
2018-02-21T13:48:51.281Z,1119
2018-02-21T13:49:51.412Z,1434
2018-02-21T13:50:51.347Z,1260
2018-02-21T13:51:51.356Z,1113
2018-02-21T13:52:51.421Z,1580
2018-02-21T13:53:51.418Z,1220
2018-02-21T13:54:51.351Z,1265
2018-02-21T13:55:51.348Z,1293
2018-02-21T13:56:51.417Z,1265
2018-02-21T13:57:51.347Z,1170
2018-02-21T13:58:51.416Z,1316
2018-02-21T13:59:51.395Z,1721
2018-02-21T14:00:51.446Z,1794
2018-02-21T14:01:51.452Z,1861